Arenas Valley, New Mexico
Current Conditions -  °F | °C
As of 3:55 PM on Monday 24 Nov 2014 (Local Time) from KSVC Reporting Station
Clear Clear  
Wind Chill: 50°   Ceiling: Unl
Heat Index: 50°   Visibility: 10mi
Dew Point: -4°   Wind: 16mph
Humidity: 11%   Direction: 280°W
Pressure: 30.09"   Gusts: 26mph
Location:  32.79°N, 108.18°W
Report Text: KSVC 242255Z AUTO 28014G23KT 10SM CLR 10/M20 A3009 RMK AO2
Loading
Personal Weather Stations






























Interactive Weather Map New forecast layout! Learn more

10-Day Weather Forecast

Advertisements
Track Severe Weather on mobile